• pl
  • eng

Awiacja
Kliknij na pogrubioną czerwoną nazwę, aby odkodować depeszę. 21:01 24.05.2019
  • WIND
  • SIGNIFICANT EURO
  • SIGNIFICANT
  • SIGMET
  • AIRMET
  • TAF FC
  • TAF FT
  • METAR GG30
  • METAR GG00


METAR EPBY 241900Z 19005KT CAVOK 16/07 Q1011 =

METAR EPGD 241900Z 12005KT CAVOK 14/10 Q1010 =

METAR EPKK 241900Z VRB02KT 8000 FEW044 SCT065 14/12 Q1013 =

METAR EPKT 241900Z VRB01KT CAVOK 13/10 Q1013 =

METAR EPLB 241900Z 27004KT CAVOK 15/14 Q1011 =

METAR EPLL 241900Z VRB02KT CAVOK 14/10 Q1012 =

METAR EPMO 241900Z 27004KT CAVOK 17/11 Q1011 =

METAR EPPO 241900Z 19003KT CAVOK 15/09 Q1012 =

METAR EPRA 241900Z NIL=

METAR EPRZ 241900Z 27009KT 9999 SCT009 BKN025 14/12 Q1012 =

METAR EPSC 241900Z 12002KT CAVOK 16/10 Q1010 =

METAR EPSY 241900Z 02001KT CAVOK 16/10 Q1011=

METAR EPWA 241900Z 28004KT CAVOK 16/11 Q1011 NOSIG=

METAR EPWR 241900Z 24004KT CAVOK 14/07 Q1013 =

METAR EPZG 241900Z 14003KT CAVOK 16/10 Q1012 =
 METAR EPKK
Lokalizacja:EPKK Kraków Balice
Czas:19:00 UTC
Średni kierunek wiatru:zmienny
Średnia prędkość wiatru:2 węzłów
Widzialność:8 kilometrów
Pierwsza warstwa chmur:1/8 do 2/8, wysokość podstawy 4400 FT
Druga warstwa chmur:3/8 do 4/8, wysokość podstawy 6500 FT
Temperatura powietrza:14 °C
Temperatura punktu rosy:12 °C
Ciśnienie QNH:1013 hPa
Awiacja.imgw.pl jest pogodowym serwisem informacyjnym
Instytutu Meteorologii i Gospodarki Wodnej Państwowego Instytutu Badawczego.
Copyright IMGW PIB 2009-2011© Wszelkie prawa zastrzeżone.